createdAt,value
2023-04-18T00:01:23.420Z,9.96
2023-04-18T00:03:49.827Z,9.92
2023-04-18T00:06:16.268Z,9.78
2023-04-18T00:08:42.440Z,9.68
2023-04-18T00:11:08.583Z,9.60
2023-04-18T00:13:34.746Z,9.45
2023-04-18T00:16:00.936Z,9.40
2023-04-18T00:18:27.103Z,9.50
2023-04-18T00:20:53.264Z,9.61
2023-04-18T00:23:19.459Z,9.56
2023-04-18T00:25:45.631Z,9.43
2023-04-18T00:28:11.803Z,9.35
2023-04-18T00:30:38.101Z,9.35
2023-04-18T00:33:04.406Z,9.46
2023-04-18T00:35:30.587Z,9.34
2023-04-18T00:37:56.708Z,9.35
2023-04-18T00:40:22.867Z,9.42
2023-04-18T00:42:49.059Z,9.34
2023-04-18T00:45:15.172Z,9.27
2023-04-18T00:47:41.398Z,9.16
2023-04-18T00:50:07.667Z,9.12
2023-04-18T00:52:33.800Z,9.12
2023-04-18T00:54:59.919Z,9.05
2023-04-18T00:57:26.071Z,8.99
2023-04-18T00:59:52.289Z,9.12
2023-04-18T01:02:18.440Z,8.90
2023-04-18T01:04:44.693Z,8.86
2023-04-18T01:07:10.808Z,8.81
2023-04-18T01:09:37.006Z,8.82
2023-04-18T01:12:03.128Z,8.73
2023-04-18T01:14:29.339Z,8.75
2023-04-18T01:16:55.520Z,8.81
2023-04-18T01:19:21.675Z,8.86
2023-04-18T01:21:47.849Z,8.89
2023-04-18T01:24:14.238Z,9.00
2023-04-18T01:26:40.568Z,9.00
2023-04-18T01:29:06.706Z,8.85
2023-04-18T01:31:32.949Z,8.87
2023-04-18T01:33:59.127Z,8.80
2023-04-18T01:36:25.284Z,8.77
2023-04-18T01:38:51.422Z,8.82
2023-04-18T01:41:17.567Z,8.77
2023-04-18T01:43:43.721Z,8.77
2023-04-18T01:46:09.885Z,8.85
2023-04-18T01:48:36.012Z,8.98
2023-04-18T01:51:02.195Z,8.98
2023-04-18T01:53:28.367Z,9.07
2023-04-18T01:55:54.531Z,8.96
2023-04-18T01:58:20.731Z,8.92
2023-04-18T02:00:46.963Z,8.83
2023-04-18T02:03:13.362Z,8.80
2023-04-18T02:05:39.621Z,8.84
2023-04-18T02:08:05.831Z,8.91
2023-04-18T02:10:32.003Z,9.03
2023-04-18T02:12:58.169Z,9.08
2023-04-18T02:15:24.380Z,9.11
2023-04-18T02:17:50.577Z,9.16
2023-04-18T02:20:16.819Z,9.16
2023-04-18T02:22:42.962Z,9.17
2023-04-18T02:25:09.107Z,9.17
2023-04-18T02:27:35.323Z,9.22
2023-04-18T02:30:01.446Z,9.23
2023-04-18T02:32:27.592Z,9.12
2023-04-18T02:34:53.757Z,9.14
2023-04-18T02:37:19.894Z,9.10
2023-04-18T02:39:46.095Z,9.05
2023-04-18T02:42:12.275Z,9.09
2023-04-18T02:44:39.669Z,9.11
2023-04-18T02:47:05.834Z,9.04
2023-04-18T02:49:31.998Z,9.08
2023-04-18T02:51:58.153Z,9.02
2023-04-18T02:54:24.326Z,8.98
2023-04-18T02:56:50.506Z,8.97
2023-04-18T02:59:16.637Z,9.03
2023-04-18T03:01:42.890Z,9.03
2023-04-18T03:04:09.055Z,8.96
2023-04-18T03:06:35.190Z,9.02
2023-04-18T03:09:01.309Z,9.04
2023-04-18T03:11:27.456Z,8.97
2023-04-18T03:13:53.600Z,8.92
2023-04-18T03:16:19.808Z,8.89
2023-04-18T03:18:46.075Z,8.87
2023-04-18T03:21:12.202Z,8.85
2023-04-18T03:23:38.409Z,8.89
2023-04-18T03:26:04.576Z,8.82
2023-04-18T03:28:30.702Z,8.87
2023-04-18T03:30:56.885Z,8.86
2023-04-18T03:33:23.078Z,8.81
2023-04-18T03:35:49.226Z,8.82
2023-04-18T03:38:15.407Z,8.73
2023-04-18T03:40:41.612Z,8.72
2023-04-18T03:43:07.773Z,8.71
2023-04-18T03:45:33.934Z,8.62
2023-04-18T03:48:00.124Z,8.59
2023-04-18T03:50:26.441Z,8.52
2023-04-18T03:52:52.640Z,8.53
2023-04-18T03:55:21.803Z,8.56
2023-04-18T03:57:48.031Z,8.30
2023-04-18T04:00:14.225Z,8.27
2023-04-18T04:02:40.546Z,8.20
2023-04-18T04:05:06.975Z,8.16
2023-04-18T04:07:33.149Z,8.09
2023-04-18T04:09:59.335Z,8.06
2023-04-18T04:12:25.455Z,7.96
2023-04-18T04:14:51.600Z,7.90
2023-04-18T04:17:17.786Z,7.83
2023-04-18T04:19:43.935Z,7.75
2023-04-18T04:22:10.134Z,7.66
2023-04-18T04:24:36.286Z,7.67
2023-04-18T04:27:02.465Z,7.66
2023-04-18T04:29:28.615Z,7.65
2023-04-18T04:31:54.817Z,7.61
2023-04-18T04:34:21.031Z,7.61
2023-04-18T04:36:47.195Z,7.60
2023-04-18T04:39:13.444Z,7.55
2023-04-18T04:41:39.618Z,7.56
2023-04-18T04:44:05.806Z,7.61
2023-04-18T04:46:31.959Z,7.64
2023-04-18T04:48:58.167Z,7.68
2023-04-18T04:51:24.348Z,7.82
2023-04-18T04:53:50.503Z,7.80
2023-04-18T04:56:16.711Z,7.88
2023-04-18T04:58:42.873Z,7.85
2023-04-18T05:01:09.114Z,8.02
2023-04-18T05:03:35.587Z,8.09
2023-04-18T05:06:01.915Z,8.19
2023-04-18T05:08:28.098Z,8.21
2023-04-18T05:10:54.258Z,8.23
2023-04-18T05:13:20.392Z,8.25
2023-04-18T05:15:46.537Z,8.29
2023-04-18T05:18:12.657Z,8.37
2023-04-18T05:20:38.794Z,8.38
2023-04-18T05:23:04.948Z,8.44
2023-04-18T05:25:31.132Z,8.48
2023-04-18T05:27:57.324Z,8.56
2023-04-18T05:30:23.527Z,8.56
2023-04-18T05:32:49.792Z,8.63
2023-04-18T05:35:16.016Z,8.65
2023-04-18T05:37:42.200Z,8.65
2023-04-18T05:40:08.356Z,8.65
2023-04-18T05:42:34.559Z,8.66
2023-04-18T05:45:00.761Z,8.62
2023-04-18T05:47:27.104Z,8.67
2023-04-18T05:49:53.274Z,8.73
2023-04-18T05:52:19.399Z,8.70
2023-04-18T05:54:45.579Z,8.69
2023-04-18T05:57:11.716Z,8.72
2023-04-18T05:59:37.914Z,8.84
2023-04-18T06:02:04.150Z,8.85
2023-04-18T06:04:30.481Z,8.88
2023-04-18T06:06:56.813Z,8.98
2023-04-18T06:09:22.995Z,8.99
2023-04-18T06:11:49.185Z,9.01
2023-04-18T06:14:15.754Z,9.01
2023-04-18T06:16:42.270Z,9.00
2023-04-18T06:19:08.412Z,9.01
2023-04-18T06:21:34.583Z,8.96
2023-04-18T06:24:00.772Z,9.03
2023-04-18T06:26:27.150Z,9.04
2023-04-18T06:28:53.357Z,9.16
2023-04-18T06:31:19.518Z,9.19
2023-04-18T06:33:45.716Z,9.23
2023-04-18T06:36:11.839Z,9.25
2023-04-18T06:38:38.073Z,9.25
2023-04-18T06:41:04.238Z,9.31
2023-04-18T06:43:30.423Z,9.33
2023-04-18T06:45:56.735Z,9.41
2023-04-18T06:48:23.021Z,9.43
2023-04-18T06:50:49.224Z,9.42
2023-04-18T06:53:15.395Z,9.38
2023-04-18T06:55:41.601Z,9.41
2023-04-18T06:58:07.754Z,9.54
2023-04-18T07:00:33.888Z,9.65
2023-04-18T07:03:00.260Z,9.69
2023-04-18T07:05:26.579Z,9.64
2023-04-18T07:07:52.787Z,9.51
2023-04-18T07:10:19.008Z,9.62
2023-04-18T07:12:45.184Z,9.75
2023-04-18T07:15:11.372Z,9.87
2023-04-18T07:17:37.614Z,10.12
2023-04-18T07:20:03.868Z,10.22
2023-04-18T07:22:30.018Z,10.53
2023-04-18T07:24:56.210Z,10.76
2023-04-18T07:27:22.405Z,10.86
2023-04-18T07:29:48.631Z,10.89
2023-04-18T07:32:14.933Z,11.14
2023-04-18T07:34:41.219Z,11.12
2023-04-18T07:37:07.491Z,11.58
2023-04-18T07:39:33.731Z,12.58
2023-04-18T07:41:59.919Z,13.39
2023-04-18T07:44:26.084Z,13.35
2023-04-18T07:46:52.320Z,13.13
2023-04-18T07:49:18.549Z,12.75
2023-04-18T07:51:44.730Z,12.43
2023-04-18T07:54:10.962Z,12.21
2023-04-18T07:56:37.150Z,11.99
2023-04-18T07:59:03.410Z,12.11
2023-04-18T08:01:29.641Z,11.77
2023-04-18T08:03:56.121Z,11.75
2023-04-18T08:06:22.519Z,11.79
2023-04-18T08:08:48.707Z,11.94
2023-04-18T08:11:14.896Z,11.90
2023-04-18T08:13:41.154Z,11.79
2023-04-18T08:16:07.447Z,11.33
2023-04-18T08:18:33.686Z,11.29
2023-04-18T08:20:59.924Z,11.14
2023-04-18T08:23:26.116Z,11.08
2023-04-18T08:25:52.288Z,11.12
2023-04-18T08:28:18.401Z,11.06
2023-04-18T08:30:44.971Z,11.24
2023-04-18T08:33:11.173Z,11.27
2023-04-18T08:35:37.353Z,11.25
2023-04-18T08:38:03.559Z,11.43
2023-04-18T08:40:29.788Z,11.45
2023-04-18T08:42:56.021Z,11.46
2023-04-18T08:45:22.193Z,11.41
2023-04-18T08:47:48.485Z,11.69
2023-04-18T08:50:14.761Z,11.90
2023-04-18T08:52:40.914Z,11.96
2023-04-18T08:55:07.161Z,12.02
2023-04-18T08:57:33.399Z,12.19
2023-04-18T08:59:59.639Z,12.66
2023-04-18T09:02:25.868Z,13.86
2023-04-18T09:04:52.069Z,15.35
2023-04-18T09:07:18.249Z,16.59
2023-04-18T09:09:44.468Z,16.89
2023-04-18T09:12:10.639Z,17.48
2023-04-18T09:14:36.834Z,17.17
2023-04-18T09:17:03.142Z,17.25
2023-04-18T09:19:29.407Z,15.52
2023-04-18T09:21:57.138Z,15.09
2023-04-18T09:24:23.430Z,14.64
2023-04-18T09:26:49.619Z,14.91
2023-04-18T09:29:15.856Z,14.48
2023-04-18T09:31:42.079Z,13.63
2023-04-18T09:34:08.256Z,12.91
2023-04-18T09:36:34.476Z,12.99
2023-04-18T09:39:00.675Z,13.00
2023-04-18T09:41:26.838Z,13.19
2023-04-18T09:43:53.081Z,13.08
2023-04-18T09:46:19.304Z,12.91
2023-04-18T09:48:45.502Z,12.96
2023-04-18T09:51:11.772Z,13.17
2023-04-18T09:53:37.980Z,13.25
2023-04-18T09:56:04.214Z,13.40
2023-04-18T09:58:30.429Z,13.34
2023-04-18T10:00:56.636Z,13.30
2023-04-18T10:03:22.877Z,13.28
2023-04-18T10:05:49.208Z,13.25
2023-04-18T10:08:15.457Z,13.39
2023-04-18T10:10:41.683Z,13.29
2023-04-18T10:13:07.890Z,13.54
2023-04-18T10:15:34.188Z,13.85
2023-04-18T10:18:05.185Z,14.35
2023-04-18T10:20:32.107Z,14.35
2023-04-18T10:22:58.369Z,14.71
2023-04-18T10:25:24.576Z,14.99
2023-04-18T10:27:53.339Z,15.62
2023-04-18T10:30:19.538Z,16.59
2023-04-18T10:32:45.758Z,15.68
2023-04-18T10:35:11.972Z,15.91
2023-04-18T10:37:38.143Z,15.79
2023-04-18T10:40:04.324Z,15.57
2023-04-18T10:42:30.598Z,15.38
2023-04-18T10:44:56.835Z,14.98
2023-04-18T10:47:23.215Z,14.51
2023-04-18T10:49:49.477Z,14.70
2023-04-18T10:52:15.647Z,14.85
2023-04-18T10:54:41.848Z,15.53
2023-04-18T10:57:08.117Z,16.41
2023-04-18T10:59:34.301Z,16.68
2023-04-18T11:02:00.590Z,17.40
2023-04-18T11:04:26.834Z,18.42
2023-04-18T11:06:53.137Z,18.23
2023-04-18T11:09:21.734Z,18.63
2023-04-18T11:11:47.926Z,18.67
2023-04-18T11:14:14.294Z,20.84
2023-04-18T11:16:40.764Z,21.09
2023-04-18T11:19:06.984Z,21.33
2023-04-18T11:21:33.201Z,20.49
2023-04-18T11:23:59.398Z,19.36
2023-04-18T11:26:25.576Z,18.14
2023-04-18T11:28:51.783Z,17.53
2023-04-18T11:31:17.941Z,17.49
2023-04-18T11:33:44.153Z,17.26
2023-04-18T11:36:10.372Z,17.28
2023-04-18T11:38:36.545Z,16.85
2023-04-18T11:41:02.759Z,16.56
2023-04-18T11:43:28.983Z,16.09
2023-04-18T11:45:55.310Z,16.14
2023-04-18T11:48:21.565Z,16.10
2023-04-18T11:50:47.788Z,16.03
2023-04-18T11:53:14.008Z,16.20
2023-04-18T11:55:40.230Z,16.81
2023-04-18T11:58:06.432Z,17.17
2023-04-18T12:00:32.581Z,16.74
2023-04-18T12:02:58.904Z,16.09
2023-04-18T12:05:25.427Z,16.83
2023-04-18T12:07:51.913Z,17.54
2023-04-18T12:10:18.076Z,18.42
2023-04-18T12:12:44.300Z,18.18
2023-04-18T12:15:10.508Z,18.29
2023-04-18T12:17:36.735Z,17.40
2023-04-18T12:20:02.986Z,18.23
2023-04-18T12:22:29.257Z,18.73
2023-04-18T12:24:55.425Z,18.64
2023-04-18T12:27:23.445Z,17.67
2023-04-18T12:29:49.634Z,17.25
2023-04-18T12:32:15.824Z,16.56
2023-04-18T12:34:42.034Z,16.51
2023-04-18T12:37:08.266Z,16.37
2023-04-18T12:39:34.475Z,16.37
2023-04-18T12:42:00.706Z,16.27
2023-04-18T12:44:27.791Z,16.30
2023-04-18T12:46:54.022Z,16.15
2023-04-18T12:49:20.199Z,15.89
2023-04-18T12:51:46.392Z,16.05
2023-04-18T12:54:12.665Z,15.76
2023-04-18T12:56:39.009Z,15.54
2023-04-18T12:59:05.205Z,15.34
2023-04-18T13:01:31.364Z,15.46
2023-04-18T13:04:11.059Z,15.51
2023-04-18T13:06:38.417Z,15.44
2023-04-18T13:09:04.627Z,15.69
2023-04-18T13:11:30.846Z,15.80
2023-04-18T13:13:57.092Z,15.79
2023-04-18T13:16:23.526Z,15.57
2023-04-18T13:18:49.719Z,15.68
2023-04-18T13:21:15.856Z,15.59
2023-04-18T13:23:42.006Z,15.58
2023-04-18T13:26:08.131Z,15.61
2023-04-18T13:28:34.284Z,15.65
2023-04-18T13:31:00.499Z,15.64
2023-04-18T13:33:26.693Z,15.67
2023-04-18T13:35:52.892Z,15.76
2023-04-18T13:38:19.100Z,15.74
2023-04-18T13:40:45.309Z,15.85
2023-04-18T13:43:11.490Z,15.90
2023-04-18T13:45:37.746Z,15.86
2023-04-18T13:48:04.169Z,16.13
2023-04-18T13:50:30.372Z,16.24
2023-04-18T13:52:56.602Z,16.28
2023-04-18T13:55:22.774Z,16.40
2023-04-18T13:57:48.945Z,16.27
2023-04-18T14:00:15.125Z,16.45
2023-04-18T14:02:41.353Z,16.46
2023-04-18T14:05:07.715Z,16.31
2023-04-18T14:07:33.916Z,16.30
2023-04-18T14:10:00.171Z,16.15
2023-04-18T14:12:26.338Z,15.89
2023-04-18T14:14:52.523Z,15.81
2023-04-18T14:17:18.685Z,15.82
2023-04-18T14:19:44.819Z,15.95
2023-04-18T14:22:11.005Z,16.11
2023-04-18T14:24:37.193Z,16.40
2023-04-18T14:27:03.341Z,16.71
2023-04-18T14:29:29.513Z,16.66
2023-04-18T14:31:55.693Z,16.54
2023-04-18T14:34:21.871Z,16.46
2023-04-18T14:36:48.027Z,16.38
2023-04-18T14:39:14.444Z,16.43
2023-04-18T14:41:40.737Z,16.51
2023-04-18T14:44:06.969Z,16.56
2023-04-18T14:46:33.207Z,16.45
2023-04-18T14:48:59.402Z,16.50
2023-04-18T14:51:25.612Z,16.49
2023-04-18T14:53:51.813Z,16.36
2023-04-18T14:56:17.948Z,16.36
2023-04-18T14:58:44.095Z,16.30
2023-04-18T15:01:10.277Z,16.44
2023-04-18T15:03:36.598Z,16.72
2023-04-18T15:08:53.818Z,16.88
2023-04-18T15:11:19.946Z,16.87
2023-04-18T15:13:46.183Z,17.00
2023-04-18T15:16:12.395Z,16.67
2023-04-18T15:18:38.600Z,16.47
2023-04-18T15:21:04.752Z,16.31
2023-04-18T15:23:30.910Z,16.25
2023-04-18T15:25:57.095Z,16.25
2023-04-18T15:28:23.262Z,16.37
2023-04-18T15:30:49.462Z,16.42
2023-04-18T15:33:15.689Z,16.48
2023-04-18T15:35:41.867Z,16.64
2023-04-18T15:38:08.147Z,16.66
2023-04-18T15:40:34.373Z,17.01
2023-04-18T15:43:00.580Z,17.00
2023-04-18T15:45:26.744Z,16.81
2023-04-18T15:47:53.124Z,16.51
2023-04-18T15:50:19.450Z,16.50
2023-04-18T15:52:45.640Z,16.34
2023-04-18T15:55:11.858Z,16.18
2023-04-18T15:57:38.078Z,16.19
2023-04-18T16:00:04.254Z,16.10
2023-04-18T16:02:30.648Z,16.06
2023-04-18T16:04:56.892Z,16.13
2023-04-18T16:07:23.103Z,16.04
2023-04-18T16:09:49.249Z,16.11
2023-04-18T16:12:15.431Z,16.14
2023-04-18T16:14:41.595Z,16.17
2023-04-18T16:17:07.787Z,16.13
2023-04-18T16:19:36.207Z,16.19
2023-04-18T16:22:02.526Z,16.12
2023-04-18T16:24:28.681Z,16.15
2023-04-18T16:26:54.863Z,16.21
2023-04-18T16:29:21.047Z,16.14
2023-04-18T16:31:47.344Z,16.16
2023-04-18T16:34:13.783Z,16.20
2023-04-18T16:36:40.002Z,16.28
2023-04-18T16:39:06.153Z,16.26
2023-04-18T16:41:32.330Z,16.22
2023-04-18T16:43:58.456Z,16.26
2023-04-18T16:46:24.630Z,16.23
2023-04-18T16:48:52.386Z,16.21
2023-04-18T16:51:18.884Z,16.19
2023-04-18T16:53:45.090Z,16.20
2023-04-18T16:56:11.233Z,16.16
2023-04-18T16:58:37.433Z,16.01
2023-04-18T17:01:03.897Z,16.01
2023-04-18T17:03:30.125Z,16.01
2023-04-18T17:05:57.556Z,15.86
2023-04-18T17:08:23.689Z,15.79
2023-04-18T17:10:49.891Z,15.72
2023-04-18T17:13:16.075Z,15.74
2023-04-18T17:15:42.280Z,15.53
2023-04-18T17:18:08.513Z,15.45
2023-04-18T17:20:34.707Z,15.41
2023-04-18T17:23:00.836Z,15.33
2023-04-18T17:28:11.131Z,15.36
2023-04-18T17:30:37.332Z,15.20
2023-04-18T17:33:03.520Z,15.12
2023-04-18T17:35:29.710Z,15.12
2023-04-18T17:37:56.053Z,14.95
2023-04-18T17:40:22.232Z,14.77
2023-04-18T17:42:48.438Z,14.73
2023-04-18T17:45:14.629Z,14.61
2023-04-18T17:47:40.965Z,14.58
2023-04-18T17:50:07.248Z,14.49
2023-04-18T17:52:33.386Z,14.46
2023-04-18T17:54:59.610Z,14.42
2023-04-18T17:57:25.765Z,14.36
2023-04-18T17:59:51.927Z,14.29
2023-04-18T18:02:18.117Z,14.29
2023-04-18T18:04:44.633Z,14.19
2023-04-18T18:07:10.913Z,14.13
2023-04-18T18:09:37.132Z,14.10
2023-04-18T18:12:03.277Z,14.10
2023-04-18T18:14:29.431Z,13.99
2023-04-18T18:16:55.647Z,13.97
2023-04-18T18:19:21.873Z,13.92
2023-04-18T18:21:48.066Z,13.87
2023-04-18T18:24:14.294Z,13.84
2023-04-18T18:26:43.258Z,13.84
2023-04-18T18:29:09.495Z,13.75
2023-04-18T18:31:35.733Z,13.68
2023-04-18T18:34:01.918Z,13.65
2023-04-18T18:36:28.084Z,13.65
2023-04-18T18:38:54.264Z,13.62
2023-04-18T18:41:20.484Z,13.66
2023-04-18T18:43:46.671Z,13.57
2023-04-18T18:46:12.894Z,13.53
2023-04-18T18:48:39.166Z,13.50
2023-04-18T18:51:05.375Z,13.42
2023-04-18T18:53:31.582Z,13.39
2023-04-18T18:55:57.737Z,13.34
2023-04-18T18:58:24.044Z,13.32
2023-04-18T19:00:50.277Z,13.32
2023-04-18T19:03:16.625Z,13.25
2023-04-18T19:05:42.943Z,13.29
2023-04-18T19:08:09.123Z,13.23
2023-04-18T19:10:35.284Z,13.22
2023-04-18T19:13:01.530Z,13.22
2023-04-18T19:15:27.702Z,13.16
2023-04-18T19:17:53.966Z,13.10
2023-04-18T19:20:20.158Z,13.02
2023-04-18T19:22:46.320Z,13.04
2023-04-18T19:25:12.501Z,13.00
2023-04-18T19:27:38.726Z,12.98
2023-04-18T19:30:05.077Z,12.96
2023-04-18T19:32:31.285Z,12.88
2023-04-18T19:34:57.454Z,12.91
2023-04-18T19:37:25.116Z,12.88
2023-04-18T19:39:51.264Z,12.87
2023-04-18T19:42:17.424Z,12.86
2023-04-18T19:44:43.586Z,12.88
2023-04-18T19:47:09.837Z,12.82
2023-04-18T19:49:36.023Z,12.74
2023-04-18T19:52:02.231Z,12.71
2023-04-18T19:54:28.450Z,12.76
2023-04-18T19:56:55.876Z,12.71
2023-04-18T19:59:22.045Z,12.75
2023-04-18T20:01:48.285Z,12.65
2023-04-18T20:04:14.759Z,12.70
2023-04-18T20:06:41.152Z,12.70
2023-04-18T20:09:07.296Z,12.65
2023-04-18T20:11:33.469Z,12.58
2023-04-18T20:13:59.699Z,12.57
2023-04-18T20:16:25.955Z,12.55
2023-04-18T20:18:54.672Z,12.50
2023-04-18T20:21:21.288Z,12.47
2023-04-18T20:23:47.494Z,12.38
2023-04-18T20:26:13.680Z,12.47
2023-04-18T20:28:39.859Z,12.51
2023-04-18T20:31:06.094Z,12.47
2023-04-18T20:33:32.288Z,12.46
2023-04-18T20:35:58.535Z,12.43
2023-04-18T20:38:25.860Z,12.37
2023-04-18T20:40:52.483Z,12.36
2023-04-18T20:43:18.634Z,12.34
2023-04-18T20:45:44.841Z,12.25
2023-04-18T20:48:11.037Z,12.22
2023-04-18T20:50:37.206Z,12.25
2023-04-18T20:53:03.398Z,12.23
2023-04-18T20:55:29.573Z,12.26
2023-04-18T20:57:55.714Z,12.27
2023-04-18T21:00:21.886Z,12.25
2023-04-18T21:02:48.274Z,12.21
2023-04-18T21:05:14.574Z,12.23
2023-04-18T21:07:40.713Z,12.18
2023-04-18T21:10:06.926Z,12.15
2023-04-18T21:12:33.111Z,12.13
2023-04-18T21:14:59.238Z,12.13
2023-04-18T21:17:25.508Z,12.13
2023-04-18T21:19:51.745Z,12.12
2023-04-18T21:22:17.977Z,12.06
2023-04-18T21:24:44.195Z,12.04
2023-04-18T21:27:10.360Z,12.05
2023-04-18T21:29:36.510Z,11.97
2023-04-18T21:32:02.655Z,11.97
2023-04-18T21:34:28.821Z,11.96
2023-04-18T21:36:55.024Z,11.91
2023-04-18T21:39:21.193Z,11.96
2023-04-18T21:41:47.353Z,11.91
2023-04-18T21:44:13.699Z,11.88
2023-04-18T21:46:40.036Z,11.92
2023-04-18T21:49:06.228Z,11.98
2023-04-18T21:51:32.376Z,11.94
2023-04-18T21:53:58.541Z,12.00
2023-04-18T21:56:24.731Z,11.98
2023-04-18T21:58:50.916Z,11.94
2023-04-18T22:01:17.078Z,11.87
2023-04-18T22:03:43.551Z,11.84
2023-04-18T22:06:09.907Z,11.83
2023-04-18T22:08:36.140Z,11.83
2023-04-18T22:11:02.393Z,11.81
2023-04-18T22:13:28.564Z,11.72
2023-04-18T22:15:54.765Z,11.69
2023-04-18T22:18:20.933Z,11.72
2023-04-18T22:20:47.082Z,11.70
2023-04-18T22:23:13.251Z,11.70
2023-04-18T22:25:39.412Z,11.72
2023-04-18T22:28:05.576Z,11.68
2023-04-18T22:30:31.785Z,11.67
2023-04-18T22:32:58.101Z,11.64
2023-04-18T22:35:24.407Z,11.62
2023-04-18T22:37:50.536Z,11.56
2023-04-18T22:40:16.708Z,11.69
2023-04-18T22:42:42.859Z,11.58
2023-04-18T22:45:09.008Z,11.56
2023-04-18T22:47:35.223Z,11.57
2023-04-18T22:50:01.419Z,11.57
2023-04-18T22:52:27.555Z,11.55
2023-04-18T22:54:53.740Z,11.44
2023-04-18T22:57:19.900Z,11.50
2023-04-18T22:59:46.049Z,11.51
2023-04-18T23:02:12.318Z,11.47
2023-04-18T23:04:38.570Z,11.43
2023-04-18T23:07:04.732Z,11.42
2023-04-18T23:09:30.923Z,11.44
2023-04-18T23:11:57.078Z,11.38
2023-04-18T23:14:23.191Z,11.31
2023-04-18T23:16:49.369Z,11.31
2023-04-18T23:19:15.552Z,11.34
2023-04-18T23:21:41.745Z,11.29
2023-04-18T23:24:07.897Z,11.26
2023-04-18T23:26:34.107Z,11.28
2023-04-18T23:29:00.313Z,11.24
2023-04-18T23:31:26.571Z,11.19
2023-04-18T23:33:52.768Z,11.25
2023-04-18T23:36:18.928Z,11.25
2023-04-18T23:38:45.086Z,11.22
2023-04-18T23:41:11.253Z,11.21
2023-04-18T23:43:37.386Z,11.17
2023-04-18T23:46:03.552Z,11.20
2023-04-18T23:48:29.708Z,11.14
2023-04-18T23:50:55.846Z,11.20
2023-04-18T23:53:22.047Z,11.17
2023-04-18T23:55:50.094Z,11.18
2023-04-18T23:58:16.974Z,11.11
